createdAt,value
2019-04-05T00:00:12.844Z,95298.97
2019-04-05T00:01:20.609Z,95301.90
2019-04-05T00:02:27.804Z,95301.90
2019-04-05T00:03:35.034Z,95294.96
2019-04-05T00:04:42.215Z,95294.49
2019-04-05T00:05:49.406Z,95297.42
2019-04-05T00:06:56.632Z,95293.45
2019-04-05T00:08:04.127Z,95299.41
2019-04-05T00:09:11.323Z,95296.02
2019-04-05T00:10:18.609Z,95295.55
2019-04-05T00:11:25.954Z,95294.38
2019-04-05T00:12:33.180Z,95295.20
2019-04-05T00:13:40.391Z,95293.91
2019-04-05T00:14:47.602Z,95292.16
2019-04-05T00:15:54.827Z,95292.63
2019-04-05T00:17:02.056Z,95291.69
2019-04-05T00:18:09.279Z,95288.30
2019-04-05T00:19:16.489Z,95299.06
2019-04-05T00:20:23.775Z,95295.31
2019-04-05T00:21:30.956Z,95295.46
2019-04-05T00:22:38.166Z,95293.47
2019-04-05T00:23:48.412Z,95300.38
2019-04-05T00:24:55.695Z,95299.20
2019-04-05T00:26:02.936Z,95294.63
2019-04-05T00:27:10.160Z,95295.10
2019-04-05T00:28:17.418Z,95292.52
2019-04-05T00:29:24.638Z,95289.02
2019-04-05T00:30:31.836Z,95298.50
2019-04-05T00:31:39.047Z,95297.56
2019-04-05T00:32:46.279Z,95292.41
2019-04-05T00:33:53.468Z,95297.56
2019-04-05T00:35:00.694Z,95302.12
2019-04-05T00:36:09.113Z,95298.62
2019-04-05T00:37:16.390Z,95296.51
2019-04-05T00:38:23.633Z,95293.58
2019-04-05T00:39:30.842Z,95290.66
2019-04-05T00:40:38.040Z,95284.80
2019-04-05T00:41:45.249Z,95276.73
2019-04-05T00:42:52.490Z,95277.30
2019-04-05T00:43:59.673Z,95277.77
2019-04-05T00:45:07.796Z,95283.28
2019-04-05T00:46:15.037Z,95278.59
2019-04-05T00:47:22.247Z,95285.50
2019-04-05T00:48:29.473Z,95281.43
2019-04-05T00:49:36.674Z,95288.91
2019-04-05T00:50:43.916Z,95292.42
2019-04-05T00:51:51.179Z,95289.14
2019-04-05T00:52:58.601Z,95287.50
2019-04-05T00:54:05.812Z,95284.81
2019-04-05T00:55:13.489Z,95282.70
2019-04-05T00:56:20.683Z,95274.52
2019-04-05T00:57:27.912Z,95282.23
2019-04-05T00:58:35.119Z,95276.27
2019-04-05T00:59:42.346Z,95282.23
2019-04-05T01:00:49.574Z,95283.99
2019-04-05T01:01:56.836Z,95282.00
2019-04-05T01:03:04.084Z,95275.21
2019-04-05T01:04:11.280Z,95271.00
2019-04-05T01:05:18.536Z,95277.44
2019-04-05T01:06:25.770Z,95274.51
2019-04-05T01:07:33.000Z,95274.98
2019-04-05T01:08:40.285Z,95278.48
2019-04-05T01:09:47.725Z,95276.88
2019-04-05T01:10:55.026Z,95280.59
2019-04-05T01:12:02.682Z,95282.34
2019-04-05T01:13:10.104Z,95287.17
2019-04-05T01:14:18.306Z,95288.92
2019-04-05T01:15:25.566Z,95284.13
2019-04-05T01:16:32.786Z,95288.78
2019-04-05T01:17:40.866Z,95292.17
2019-04-05T01:18:49.039Z,95287.73
2019-04-05T01:20:01.200Z,95284.34
2019-04-05T01:21:14.155Z,95285.51
2019-04-05T01:22:27.382Z,95291.59
2019-04-05T01:23:36.262Z,95292.88
2019-04-05T01:24:43.964Z,95298.03
2019-04-05T01:25:54.357Z,95302.70
2019-04-05T01:27:02.079Z,95301.19
2019-04-05T01:28:09.557Z,95305.52
2019-04-05T01:29:17.249Z,95303.66
2019-04-05T01:30:24.565Z,95306.94
2019-04-05T01:31:31.834Z,95313.47
2019-04-05T01:32:39.045Z,95311.24
2019-04-05T01:33:46.467Z,95312.42
2019-04-05T01:34:53.796Z,95312.19
2019-04-05T01:36:01.037Z,95313.83
2019-04-05T01:37:08.248Z,95315.82
2019-04-05T01:38:15.474Z,95315.35
2019-04-05T01:39:22.681Z,95322.82
2019-04-05T01:40:32.623Z,95323.17
2019-04-05T01:41:40.811Z,95326.92
2019-04-05T01:42:48.831Z,95325.88
2019-04-05T01:43:56.028Z,95324.94
2019-04-05T01:45:03.386Z,95322.25
2019-04-05T01:46:10.912Z,95328.92
2019-04-05T01:47:18.108Z,95322.22
2019-04-05T01:48:25.322Z,95323.86
2019-04-05T01:49:32.530Z,95325.50
2019-04-05T01:50:39.743Z,95322.92
2019-04-05T01:51:47.043Z,95326.20
2019-04-05T01:52:54.889Z,95327.73
2019-04-05T01:54:02.107Z,95327.73
2019-04-05T01:55:09.577Z,95329.83
2019-04-05T01:56:16.799Z,95334.05
2019-04-05T01:57:24.054Z,95333.94
2019-04-05T01:58:31.268Z,95331.36
2019-04-05T01:59:38.490Z,95333.47
2019-04-05T02:00:45.733Z,95326.09
2019-04-05T02:01:53.126Z,95331.59
2019-04-05T02:03:00.362Z,95334.17
2019-04-05T02:04:07.562Z,95328.20
2019-04-05T02:05:16.076Z,95333.70
2019-04-05T02:06:23.270Z,95333.35
2019-04-05T02:07:31.087Z,95333.35
2019-04-05T02:08:38.666Z,95340.72
2019-04-05T02:09:45.907Z,95334.28
2019-04-05T02:10:55.194Z,95338.97
2019-04-05T02:12:02.655Z,95339.44
2019-04-05T02:13:09.864Z,95335.11
2019-04-05T02:14:17.528Z,95332.17
2019-04-05T02:15:30.827Z,95336.51
2019-04-05T02:16:38.129Z,95334.87
2019-04-05T02:17:46.376Z,95332.88
2019-04-05T02:18:53.569Z,95336.39
2019-04-05T02:20:00.795Z,95334.16
2019-04-05T02:21:08.219Z,95334.16
2019-04-05T02:22:15.425Z,95331.13
2019-04-05T02:23:22.712Z,95328.55
2019-04-05T02:24:29.937Z,95325.86
2019-04-05T02:25:37.162Z,95329.72
2019-04-05T02:26:44.375Z,95324.56
2019-04-05T02:27:51.704Z,95325.86
2019-04-05T02:28:58.902Z,95315.91
2019-04-05T02:30:06.966Z,95318.12
2019-04-05T02:31:14.175Z,95312.04
2019-04-05T02:32:21.554Z,95307.47
2019-04-05T02:33:28.942Z,95308.88
2019-04-05T02:34:36.143Z,95314.64
2019-04-05T02:35:43.555Z,95308.91
2019-04-05T02:36:50.770Z,95309.48
2019-04-05T02:37:58.056Z,95316.04
2019-04-05T02:39:07.760Z,95313.58
2019-04-05T02:40:17.470Z,95310.30
2019-04-05T02:41:28.042Z,95316.06
2019-04-05T02:42:36.859Z,95314.89
2019-04-05T02:43:47.072Z,95319.80
2019-04-05T02:44:56.352Z,95317.69
2019-04-05T02:46:10.633Z,95324.59
2019-04-05T02:47:14.838Z,95319.45
2019-04-05T02:48:24.259Z,95319.45
2019-04-05T02:49:34.423Z,95318.39
2019-04-05T02:50:47.152Z,95317.58
2019-04-05T02:51:56.971Z,95313.72
2019-04-05T02:53:08.478Z,95311.25
2019-04-05T02:54:17.708Z,95315.47
2019-04-05T02:55:27.713Z,95310.44
2019-04-05T02:56:36.615Z,95310.08
2019-04-05T02:57:47.441Z,95308.80
2019-04-05T02:58:55.763Z,95311.02
2019-04-05T03:00:04.309Z,95314.41
2019-04-05T03:01:12.195Z,95314.77
2019-04-05T03:02:20.051Z,95311.72
2019-04-05T03:03:27.674Z,95312.42
2019-04-05T03:04:35.211Z,95310.56
2019-04-05T03:05:43.246Z,95311.23
2019-04-05T03:06:52.960Z,95318.48
2019-04-05T03:08:00.169Z,95317.09
2019-04-05T03:09:08.580Z,95314.63
2019-04-05T03:11:06.887Z,95316.06
2019-04-05T03:12:14.609Z,95314.42
2019-04-05T03:13:22.644Z,95318.14
2019-04-05T03:14:31.357Z,95321.55
2019-04-05T03:15:38.566Z,95324.94
2019-04-05T03:16:50.176Z,95329.27
2019-04-05T03:17:57.860Z,95333.02
2019-04-05T03:19:14.993Z,95331.73
2019-04-05T03:20:22.293Z,95332.44
2019-04-05T03:21:32.321Z,95334.54
2019-04-05T03:22:40.058Z,95336.53
2019-04-05T03:23:49.189Z,95336.06
2019-04-05T03:25:00.074Z,95336.30
2019-04-05T03:26:10.991Z,95337.95
2019-04-05T03:27:26.819Z,95337.13
2019-04-05T03:28:38.524Z,95339.44
2019-04-05T03:29:47.249Z,95335.23
2019-04-05T03:30:54.466Z,95334.41
2019-04-05T03:32:02.351Z,95335.58
2019-04-05T03:33:10.362Z,95336.64
2019-04-05T03:34:18.882Z,95342.49
2019-04-05T03:35:27.098Z,95338.52
2019-04-05T03:36:34.716Z,95343.09
2019-04-05T03:37:42.032Z,95339.69
2019-04-05T03:38:49.841Z,95340.40
2019-04-05T03:39:58.881Z,95339.31
2019-04-05T03:41:07.070Z,95337.44
2019-04-05T03:42:14.516Z,95338.15
2019-04-05T03:43:21.891Z,95342.25
2019-04-05T03:44:29.571Z,95344.13
2019-04-05T03:45:37.094Z,95335.78
2019-04-05T03:46:56.505Z,95330.05
2019-04-05T03:47:53.903Z,95335.55
2019-04-05T03:49:01.466Z,95334.73
2019-04-05T03:50:09.251Z,95341.64
2019-04-05T03:51:17.068Z,95340.35
2019-04-05T03:52:24.611Z,95342.93
2019-04-05T03:53:32.086Z,95348.08
2019-04-05T03:54:39.286Z,95346.91
2019-04-05T03:55:46.985Z,95348.20
2019-04-05T03:56:54.498Z,95350.42
2019-04-05T03:58:01.948Z,95343.16
2019-04-05T03:59:09.277Z,95347.99
2019-04-05T04:00:16.618Z,95346.00
2019-04-05T04:01:23.923Z,95346.11
2019-04-05T04:02:31.413Z,95345.30
2019-04-05T04:03:39.030Z,95345.30
2019-04-05T04:04:46.250Z,95344.47
2019-04-05T04:05:53.667Z,95347.87
2019-04-05T04:07:01.300Z,95351.73
2019-04-05T04:08:08.509Z,95351.62
2019-04-05T04:09:15.931Z,95343.42
2019-04-05T04:10:24.983Z,95349.39
2019-04-05T04:11:32.496Z,95353.14
2019-04-05T04:12:39.828Z,95350.56
2019-04-05T04:13:47.361Z,95350.07
2019-04-05T04:14:57.509Z,95354.17
2019-04-05T04:16:05.418Z,95349.72
2019-04-05T04:17:13.615Z,95352.89
2019-04-05T04:18:21.324Z,95352.34
2019-04-05T04:19:29.808Z,95349.02
2019-04-05T04:20:47.219Z,95353.48
2019-04-05T04:22:24.616Z,95349.50
2019-04-05T04:23:32.129Z,95352.66
2019-04-05T04:24:39.653Z,95351.05
2019-04-05T04:25:47.254Z,95352.77
2019-04-05T04:26:58.057Z,95351.13
2019-04-05T04:28:06.285Z,95353.70
2019-04-05T04:29:14.496Z,95349.14
2019-04-05T04:30:21.951Z,95358.16
2019-04-05T04:31:29.564Z,95352.30
2019-04-05T04:32:36.883Z,95357.09
2019-04-05T04:33:44.357Z,95357.22
2019-04-05T04:34:52.074Z,95360.26
2019-04-05T04:35:59.293Z,95358.30
2019-04-05T04:37:06.703Z,95362.16
2019-04-05T04:38:14.495Z,95355.84
2019-04-05T04:39:22.447Z,95364.03
2019-04-05T04:40:29.760Z,95366.61
2019-04-05T04:41:37.302Z,95368.83
2019-04-05T04:42:44.674Z,95367.19
2019-04-05T04:43:52.284Z,95366.72
2019-04-05T04:45:11.257Z,95368.02
2019-04-05T04:46:09.715Z,95369.19
2019-04-05T04:47:26.235Z,95370.94
2019-04-05T04:48:28.035Z,95374.34
2019-04-05T04:49:35.547Z,95369.66
2019-04-05T04:50:43.898Z,95380.31
2019-04-05T04:51:51.907Z,95375.98
2019-04-05T04:53:00.059Z,95380.66
2019-04-05T04:54:07.812Z,95375.05
2019-04-05T04:55:15.323Z,95376.65
2019-04-05T04:56:22.937Z,95384.73
2019-04-05T04:57:30.253Z,95376.53
2019-04-05T04:58:37.915Z,95378.53
2019-04-05T04:59:45.336Z,95380.64
2019-04-05T05:00:52.861Z,95380.98
2019-04-05T05:02:00.239Z,95384.27
2019-04-05T05:03:07.763Z,95383.34
2019-04-05T05:04:15.198Z,95384.54
2019-04-05T05:05:23.236Z,95383.61
2019-04-05T05:06:31.937Z,95387.82
2019-04-05T05:07:40.044Z,95386.53
2019-04-05T05:08:47.283Z,95382.52
2019-04-05T05:09:54.599Z,95385.45
2019-04-05T05:11:13.659Z,95388.03
2019-04-05T05:12:11.048Z,95384.52
2019-04-05T05:13:18.470Z,95387.09
2019-04-05T05:14:25.774Z,95390.61
2019-04-05T05:15:32.979Z,95384.28
2019-04-05T05:16:40.206Z,95384.28
2019-04-05T05:17:57.982Z,95394.00
2019-04-05T05:18:57.375Z,95386.39
2019-04-05T05:20:06.309Z,95386.39
2019-04-05T05:21:13.925Z,95383.46
2019-04-05T05:22:21.364Z,95390.87
2019-04-05T05:23:29.174Z,95387.94
2019-04-05T05:24:36.983Z,95388.76
2019-04-05T05:25:46.885Z,95391.80
2019-04-05T05:26:54.376Z,95386.73
2019-04-05T05:28:02.232Z,95386.38
2019-04-05T05:29:09.895Z,95389.89
2019-04-05T05:30:18.786Z,95388.95
2019-04-05T05:31:26.655Z,95390.72
2019-04-05T05:32:34.873Z,95397.16
2019-04-05T05:33:42.307Z,95387.78
2019-04-05T05:35:01.441Z,95385.56
2019-04-05T05:35:58.828Z,95389.31
2019-04-05T05:37:06.268Z,95382.40
2019-04-05T05:38:13.583Z,95389.11
2019-04-05T05:39:21.098Z,95389.78
2019-04-05T05:40:34.699Z,95393.06
2019-04-05T05:41:37.270Z,95395.06
2019-04-05T05:42:44.585Z,95393.66
2019-04-05T05:43:51.996Z,95396.59
2019-04-05T05:44:59.281Z,95395.30
2019-04-05T05:46:06.684Z,95389.33
2019-04-05T05:47:13.911Z,95394.59
2019-04-05T05:48:21.629Z,95388.16
2019-04-05T05:49:28.856Z,95397.98
2019-04-05T05:50:36.653Z,95391.08
2019-04-05T05:51:44.178Z,95400.09
2019-04-05T05:52:52.831Z,95395.88
2019-04-05T05:54:01.960Z,95405.25
2019-04-05T05:55:09.488Z,95400.22
2019-04-05T05:56:16.712Z,95400.69
2019-04-05T05:57:23.938Z,95401.97
2019-04-05T05:58:31.161Z,95400.69
2019-04-05T05:59:38.362Z,95405.37
2019-04-05T06:00:45.574Z,95406.19
2019-04-05T06:01:52.816Z,95404.44
2019-04-05T06:03:00.037Z,95406.55
2019-04-05T06:04:07.307Z,95405.25
2019-04-05T06:05:15.059Z,95399.52
2019-04-05T06:06:22.269Z,95403.73
2019-04-05T06:07:29.540Z,95400.69
2019-04-05T06:08:37.753Z,95404.44
2019-04-05T06:09:47.616Z,95396.70
2019-04-05T06:10:53.873Z,95400.58
2019-04-05T06:12:01.086Z,95395.89
2019-04-05T06:13:08.296Z,95399.87
2019-04-05T06:14:15.508Z,95400.80
2019-04-05T06:15:22.732Z,95401.27
2019-04-05T06:16:29.973Z,95398.70
2019-04-05T06:17:37.184Z,95394.83
2019-04-05T06:18:44.395Z,95400.45
2019-04-05T06:19:51.606Z,95396.47
2019-04-05T06:20:58.817Z,95391.78
2019-04-05T06:22:06.148Z,95396.47
2019-04-05T06:23:13.389Z,95390.14
2019-04-05T06:24:20.600Z,95392.72
2019-04-05T06:25:27.903Z,95393.30
2019-04-05T06:26:35.097Z,95395.88
2019-04-05T06:27:42.293Z,95399.05
2019-04-05T06:28:49.551Z,95394.00
2019-04-05T06:29:56.775Z,95394.47
2019-04-05T06:31:03.985Z,95395.77
2019-04-05T06:32:11.168Z,95395.41
2019-04-05T06:33:30.901Z,95398.34
2019-04-05T06:34:27.420Z,95394.00
2019-04-05T06:35:34.615Z,95392.72
2019-04-05T06:36:41.825Z,95394.47
2019-04-05T06:37:49.024Z,95392.36
2019-04-05T06:38:56.234Z,95391.19
2019-04-05T06:40:03.459Z,95394.38
2019-04-05T06:41:10.672Z,95393.64
2019-04-05T06:42:17.880Z,95390.72
2019-04-05T06:43:25.107Z,95390.72
2019-04-05T06:44:32.333Z,95391.65
2019-04-05T06:45:39.588Z,95389.89
2019-04-05T06:46:46.787Z,95395.87
2019-04-05T06:47:54.026Z,95399.73
2019-04-05T06:49:01.222Z,95399.27
2019-04-05T06:50:09.122Z,95395.52
2019-04-05T06:51:16.334Z,95398.44
2019-04-05T06:52:23.607Z,95397.97
2019-04-05T06:53:30.816Z,95395.05
2019-04-05T06:54:38.044Z,95393.29
2019-04-05T06:55:45.282Z,95393.29
2019-04-05T06:56:52.573Z,95394.46
2019-04-05T06:57:59.795Z,95388.84
2019-04-05T06:59:07.035Z,95394.84
2019-04-05T07:00:15.717Z,95391.06
2019-04-05T07:01:23.002Z,95392.00
2019-04-05T07:02:30.214Z,95385.79
2019-04-05T07:03:37.411Z,95392.81
2019-04-05T07:04:44.636Z,95394.69
2019-04-05T07:05:51.954Z,95396.44
2019-04-05T07:06:59.387Z,95388.03
2019-04-05T07:08:06.629Z,95389.32
2019-04-05T07:09:13.811Z,95390.14
2019-04-05T07:10:21.020Z,95395.03
2019-04-05T07:11:28.231Z,95391.05
2019-04-05T07:12:35.487Z,95389.66
2019-04-05T07:13:42.701Z,95394.69
2019-04-05T07:14:49.894Z,95394.11
2019-04-05T07:15:57.120Z,95395.75
2019-04-05T07:17:04.421Z,95396.14
2019-04-05T07:18:11.636Z,95393.56
2019-04-05T07:19:18.858Z,95397.78
2019-04-05T07:20:26.145Z,95398.92
2019-04-05T07:21:33.385Z,95397.63
2019-04-05T07:22:40.581Z,95403.14
2019-04-05T07:23:47.777Z,95399.27
2019-04-05T07:24:54.974Z,95397.41
2019-04-05T07:26:02.184Z,95400.22
2019-04-05T07:27:09.411Z,95399.98
2019-04-05T07:28:16.654Z,95401.36
2019-04-05T07:29:23.847Z,95398.20
2019-04-05T07:30:32.645Z,95396.68
2019-04-05T07:31:40.055Z,95393.05
2019-04-05T07:32:47.283Z,95393.76
2019-04-05T07:33:56.247Z,95399.61
2019-04-05T07:35:03.758Z,95395.95
2019-04-05T07:36:10.960Z,95394.55
2019-04-05T07:37:18.166Z,95398.77
2019-04-05T07:38:25.406Z,95396.89
2019-04-05T07:39:32.603Z,95402.40
2019-04-05T07:40:39.828Z,95402.28
2019-04-05T07:41:47.039Z,95401.81
2019-04-05T07:42:54.234Z,95402.16
2019-04-05T07:44:01.447Z,95401.34
2019-04-05T07:45:08.957Z,95408.61
2019-04-05T07:46:16.183Z,95410.25
2019-04-05T07:47:23.439Z,95409.90
2019-04-05T07:48:43.876Z,95410.60
2019-04-05T07:49:40.666Z,95414.33
2019-04-05T07:50:47.878Z,95416.43
2019-04-05T07:51:55.076Z,95419.02
2019-04-05T07:53:02.270Z,95417.61
2019-04-05T07:54:09.513Z,95417.02
2019-04-05T07:55:17.042Z,95418.19
2019-04-05T07:56:24.292Z,95417.25
2019-04-05T07:57:31.535Z,95416.20
2019-04-05T07:58:39.737Z,95420.42
2019-04-05T07:59:46.945Z,95417.38
2019-04-05T08:00:56.526Z,95420.63
2019-04-05T08:02:03.856Z,95419.68
2019-04-05T08:03:11.073Z,95423.44
2019-04-05T08:04:18.279Z,95420.39
2019-04-05T08:05:25.512Z,95431.41
2019-04-05T08:06:34.922Z,95427.42
2019-04-05T08:07:46.694Z,95429.88
2019-04-05T08:09:02.525Z,95429.88
2019-04-05T08:10:10.657Z,95430.70
2019-04-05T08:11:18.966Z,95431.28
2019-04-05T08:12:27.239Z,95432.92
2019-04-05T08:13:36.851Z,95432.81
2019-04-05T08:14:45.019Z,95431.88
2019-04-05T08:15:52.608Z,95427.06
2019-04-05T08:16:59.834Z,95423.52
2019-04-05T08:18:07.105Z,95429.38
2019-04-05T08:19:14.316Z,95425.04
2019-04-05T08:20:21.512Z,95434.53
2019-04-05T08:21:28.770Z,95426.45
2019-04-05T08:22:35.965Z,95429.96
2019-04-05T08:23:43.203Z,95425.42
2019-04-05T08:24:50.475Z,95422.49
2019-04-05T08:25:57.687Z,95425.66
2019-04-05T08:27:04.902Z,95421.91
2019-04-05T08:28:12.155Z,95416.40
2019-04-05T08:29:19.379Z,95418.98
2019-04-05T08:30:26.636Z,95412.53
2019-04-05T08:31:33.877Z,95415.58
2019-04-05T08:32:41.109Z,95420.27
2019-04-05T08:33:48.299Z,95421.91
2019-04-05T08:34:55.499Z,95424.25
2019-04-05T08:36:03.771Z,95426.36
2019-04-05T08:37:11.027Z,95431.41
2019-04-05T08:38:18.239Z,95436.30
2019-04-05T08:39:25.479Z,95432.30
2019-04-05T08:40:32.713Z,95434.30
2019-04-05T08:41:39.920Z,95439.69
2019-04-05T08:42:47.217Z,95436.52
2019-04-05T08:43:54.444Z,95439.30
2019-04-05T08:45:01.661Z,95441.64
2019-04-05T08:46:08.867Z,95443.64
2019-04-05T08:47:16.094Z,95443.52
2019-04-05T08:48:23.305Z,95448.44
2019-04-05T08:49:30.573Z,95447.50
2019-04-05T08:50:37.995Z,95447.50
2019-04-05T08:51:45.252Z,95444.58
2019-04-05T08:52:52.449Z,95444.92
2019-04-05T08:53:59.688Z,95448.56
2019-04-05T08:55:07.213Z,95452.82
2019-04-05T08:56:14.394Z,95455.98
2019-04-05T08:57:21.631Z,95447.20
2019-04-05T08:58:33.663Z,95449.89
2019-04-05T08:59:37.788Z,95452.94
2019-04-05T09:00:45.054Z,95451.77
2019-04-05T09:01:52.264Z,95449.66
2019-04-05T09:02:59.491Z,95450.02
2019-04-05T09:04:06.807Z,95452.47
2019-04-05T09:05:14.228Z,95453.30
2019-04-05T09:06:21.484Z,95452.36
2019-04-05T09:07:28.754Z,95453.41
2019-04-05T09:08:35.940Z,95454.58
2019-04-05T09:09:43.162Z,95458.66
2019-04-05T09:10:50.383Z,95451.73
2019-04-05T09:11:58.680Z,95450.91
2019-04-05T09:13:05.892Z,95454.55
2019-04-05T09:14:13.101Z,95450.20
2019-04-05T09:15:20.327Z,95442.70
2019-04-05T09:16:27.524Z,95452.08
2019-04-05T09:17:34.773Z,95448.91
2019-04-05T09:18:41.964Z,95450.55
2019-04-05T09:19:50.509Z,95452.39
2019-04-05T09:20:57.702Z,95451.45
2019-04-05T09:22:04.916Z,95449.92
2019-04-05T09:23:12.127Z,95453.20
2019-04-05T09:24:19.336Z,95455.20
2019-04-05T09:25:26.579Z,95453.32
2019-04-05T09:26:33.777Z,95447.69
2019-04-05T09:27:40.969Z,95449.30
2019-04-05T09:28:48.171Z,95447.89
2019-04-05T09:29:55.391Z,95445.19
2019-04-05T09:31:02.707Z,95449.76
2019-04-05T09:32:10.055Z,95441.89
2019-04-05T09:33:17.250Z,95445.52
2019-04-05T09:34:26.040Z,95442.83
2019-04-05T09:35:33.235Z,95445.25
2019-04-05T09:36:40.489Z,95448.41
2019-04-05T09:37:48.830Z,95452.16
2019-04-05T09:38:56.039Z,95455.45
2019-04-05T09:40:03.239Z,95453.56
2019-04-05T09:41:10.444Z,95454.27
2019-04-05T09:42:17.702Z,95452.81
2019-04-05T09:43:24.896Z,95454.34
2019-04-05T09:44:32.106Z,95457.27
2019-04-05T09:45:39.347Z,95460.08
2019-04-05T09:46:50.856Z,95463.36
2019-04-05T09:47:55.463Z,95466.30
2019-04-05T09:49:02.705Z,95467.49
2019-04-05T09:50:10.731Z,95463.97
2019-04-05T09:51:18.928Z,95465.11
2019-04-05T09:52:26.198Z,95466.63
2019-04-05T09:53:33.609Z,95463.58
2019-04-05T09:54:40.891Z,95460.87
2019-04-05T09:55:48.102Z,95460.74
2019-04-05T09:56:56.797Z,95463.20
2019-04-05T09:58:04.744Z,95461.44
2019-04-05T09:59:11.944Z,95461.69
2019-04-05T10:00:24.763Z,95457.11
2019-04-05T10:01:32.036Z,95461.11
2019-04-05T10:02:39.230Z,95459.63
2019-04-05T10:03:46.468Z,95460.92
2019-04-05T10:04:53.682Z,95462.53
2019-04-05T10:06:00.910Z,95462.53
2019-04-05T10:07:08.421Z,95462.05
2019-04-05T10:08:15.737Z,95458.33
2019-04-05T10:09:22.973Z,95454.93
2019-04-05T10:10:30.170Z,95455.75
2019-04-05T10:11:37.386Z,95457.64
2019-04-05T10:12:44.581Z,95459.48
2019-04-05T10:13:51.787Z,95455.73
2019-04-05T10:14:59.000Z,95459.85
2019-04-05T10:16:06.224Z,95461.86
2019-04-05T10:17:13.435Z,95464.71
2019-04-05T10:18:20.645Z,95463.66
2019-04-05T10:19:27.872Z,95464.48
2019-04-05T10:20:35.083Z,95462.38
2019-04-05T10:21:42.310Z,95470.47
2019-04-05T10:22:49.534Z,95468.36
2019-04-05T10:23:56.746Z,95466.13
2019-04-05T10:25:04.548Z,95465.65
2019-04-05T10:26:11.766Z,95456.84
2019-04-05T10:27:19.071Z,95457.52
2019-04-05T10:28:26.294Z,95459.50
2019-04-05T10:29:33.535Z,95459.27
2019-04-05T10:30:40.796Z,95456.44
2019-04-05T10:31:48.005Z,95463.97
2019-04-05T10:32:55.242Z,95461.11
2019-04-05T10:34:02.455Z,95458.41
2019-04-05T10:35:09.906Z,95459.92
2019-04-05T10:36:19.853Z,95448.66
2019-04-05T10:37:26.036Z,95449.00
2019-04-05T10:38:33.262Z,95442.55
2019-04-05T10:39:40.459Z,95442.89
2019-04-05T10:40:47.660Z,95440.53
2019-04-05T10:42:03.510Z,95437.48
2019-04-05T10:43:03.853Z,95438.42
2019-04-05T10:44:13.037Z,95441.95
2019-04-05T10:45:20.622Z,95438.79
2019-04-05T10:46:28.118Z,95444.55
2019-04-05T10:47:35.390Z,95438.34
2019-04-05T10:48:42.653Z,95436.58
2019-04-05T10:50:02.295Z,95437.52
2019-04-05T10:50:58.852Z,95440.45
2019-04-05T10:52:06.063Z,95441.86
2019-04-05T10:53:13.261Z,95438.34
2019-04-05T10:54:20.469Z,95441.74
2019-04-05T10:55:27.682Z,95439.98
2019-04-05T10:56:34.958Z,95436.58
2019-04-05T10:57:42.149Z,95443.86
2019-04-05T10:58:49.360Z,95442.44
2019-04-05T10:59:56.569Z,95440.20
2019-04-05T11:01:03.796Z,95431.86
2019-04-05T11:02:11.006Z,95431.73
2019-04-05T11:03:18.232Z,95434.55
2019-04-05T11:04:25.503Z,95434.27
2019-04-05T11:05:32.792Z,95429.92
2019-04-05T11:06:40.015Z,95436.13
2019-04-05T11:07:47.271Z,95433.30
2019-04-05T11:08:54.489Z,95436.94
2019-04-05T11:10:01.742Z,95440.28
2019-04-05T11:11:09.059Z,95436.75
2019-04-05T11:12:16.309Z,95435.21
2019-04-05T11:13:24.495Z,95436.85
2019-04-05T11:14:31.705Z,95434.61
2019-04-05T11:15:38.932Z,95432.85
2019-04-05T11:16:57.848Z,95427.21
2019-04-05T11:17:55.064Z,95427.53
2019-04-05T11:19:02.683Z,95428.81
2019-04-05T11:20:21.343Z,95428.22
2019-04-05T11:21:19.865Z,95430.20
2019-04-05T11:22:28.168Z,95426.20
2019-04-05T11:23:35.418Z,95422.20
2019-04-05T11:24:42.604Z,95419.02
2019-04-05T11:25:49.846Z,95430.41
2019-04-05T11:26:57.030Z,95426.71
2019-04-05T11:28:04.240Z,95430.34
2019-04-05T11:29:12.699Z,95430.09
2019-04-05T11:30:45.215Z,95425.14
2019-04-05T11:31:57.382Z,95430.66
2019-04-05T11:33:01.360Z,95428.58
2019-04-05T11:34:08.586Z,95427.06
2019-04-05T11:35:16.116Z,95424.25
2019-04-05T11:36:24.841Z,95425.48
2019-04-05T11:37:32.259Z,95421.51
2019-04-05T11:38:40.850Z,95422.36
2019-04-05T11:39:48.647Z,95420.18
2019-04-05T11:40:57.033Z,95418.19
2019-04-05T11:42:05.947Z,95418.79
2019-04-05T11:43:15.876Z,95417.15
2019-04-05T11:44:25.290Z,95415.91
2019-04-05T11:45:34.334Z,95420.52
2019-04-05T11:46:41.978Z,95421.36
2019-04-05T11:47:53.558Z,95419.17
2019-04-05T11:49:03.731Z,95418.25
2019-04-05T11:50:12.703Z,95415.72
2019-04-05T11:51:19.944Z,95410.89
2019-04-05T11:52:27.139Z,95409.03
2019-04-05T11:53:34.381Z,95411.96
2019-04-05T11:54:41.668Z,95414.42
2019-04-05T11:55:48.925Z,95420.28
2019-04-05T11:56:56.137Z,95419.81
2019-04-05T11:58:03.404Z,95417.61
2019-04-05T11:59:15.545Z,95415.72
2019-04-05T12:00:30.128Z,95414.28
2019-04-05T12:01:51.683Z,95409.94
2019-04-05T12:03:02.060Z,95415.33
2019-04-05T12:04:09.360Z,95415.20
2019-04-05T12:05:17.276Z,95412.37
2019-04-05T12:06:24.528Z,95415.84
2019-04-05T12:07:31.747Z,95413.70
2019-04-05T12:08:38.983Z,95412.04
2019-04-05T12:09:48.044Z,95408.93
2019-04-05T12:10:55.121Z,95408.33
2019-04-05T12:12:02.371Z,95408.08
2019-04-05T12:13:09.609Z,95407.26
2019-04-05T12:14:29.673Z,95406.66
2019-04-05T12:15:26.704Z,95403.61
2019-04-05T12:16:36.004Z,95396.67
2019-04-05T12:17:42.947Z,95401.44
2019-04-05T12:18:50.183Z,95396.48
2019-04-05T12:19:57.409Z,95399.30
2019-04-05T12:21:05.695Z,95393.17
2019-04-05T12:22:13.285Z,95397.12
2019-04-05T12:23:20.525Z,95393.58
2019-04-05T12:24:27.751Z,95396.39
2019-04-05T12:25:34.964Z,95397.55
2019-04-05T12:26:42.778Z,95393.42
2019-04-05T12:27:51.252Z,95397.65
2019-04-05T12:28:58.516Z,95399.77
2019-04-05T12:30:08.011Z,95399.28
2019-04-05T12:31:15.506Z,95397.05
2019-04-05T12:32:33.405Z,95397.86
2019-04-05T12:33:34.980Z,95394.30
2019-04-05T12:34:42.221Z,95395.00
2019-04-05T12:35:51.669Z,95393.10
2019-04-05T12:36:59.378Z,95393.19
2019-04-05T12:38:07.818Z,95390.48
2019-04-05T12:39:16.135Z,95393.12
2019-04-05T12:40:23.409Z,95385.58
2019-04-05T12:41:30.632Z,95384.63
2019-04-05T12:42:37.828Z,95382.52
2019-04-05T12:43:45.115Z,95374.08
2019-04-05T12:44:52.355Z,95380.32
2019-04-05T12:45:59.614Z,95377.08
2019-04-05T12:47:07.167Z,95377.55
2019-04-05T12:48:16.009Z,95374.48
2019-04-05T12:49:23.330Z,95370.48
2019-04-05T12:50:30.618Z,95369.84
2019-04-05T12:51:37.828Z,95368.91
2019-04-05T12:52:45.055Z,95368.91
2019-04-05T12:53:52.294Z,95371.96
2019-04-05T12:54:59.536Z,95370.33
2019-04-05T12:56:07.061Z,95375.36
2019-04-05T12:57:14.346Z,95374.55
2019-04-05T12:58:25.631Z,95369.03
2019-04-05T12:59:30.524Z,95373.38
2019-04-05T13:00:38.997Z,95373.86
2019-04-05T13:01:46.515Z,95375.16
2019-04-05T13:02:56.855Z,95372.56
2019-04-05T13:04:02.848Z,95368.84
2019-04-05T13:05:10.183Z,95371.09
2019-04-05T13:06:17.452Z,95374.97
2019-04-05T13:07:24.706Z,95373.33
2019-04-05T13:08:33.046Z,95369.32
2019-04-05T13:09:40.298Z,95380.01
2019-04-05T13:10:48.044Z,95381.14
2019-04-05T13:11:57.409Z,95378.42
2019-04-05T13:13:04.395Z,95375.23
2019-04-05T13:14:11.634Z,95373.34
2019-04-05T13:15:20.403Z,95374.37
2019-04-05T13:16:27.703Z,95375.55
2019-04-05T13:17:34.944Z,95376.20